KWRL/WRL METAR and TAF weather

Enter ICAO airport designator
Station Type Date Time Source
KWRL METAR 2021/05/11 16:53 UTC NOAA

KWRL 111653Z AUTO VRB03KT 10SM SCT042 11/01 A3019 RMK AO2 SLP224 T01060006


Station Type Date Time Source
KWRL Decoded METAR 2021/05/11 16:53 UTC NOAA

WORLAND MUNICIPAL AIRPORT, WY, United States (KWRL) 43-58N 107-57W 1271M
May 11, 2021 - 12:53 PM EDT / 2021.05.11 1653 UTC
Wind: Variable at 3 MPH (3 KT):0
Visibility: 10 mile(s):0
Sky conditions: partly cloudy
Temperature: 51.1 F (10.6 C)
Dew Point: 33.1 F (0.6 C)
Relative Humidity: 49%
Pressure (altimeter): 30.19 in. Hg (1022 hPa)
ob: KWRL 111653Z AUTO VRB03KT 10SM SCT042 11/01 A3019 RMK AO2 SLP224 T01060006
cycle: 17

Station Type Date Time Source
KWRL TAF 2021/05/11 12:36 UTC NOAA

TAF KWRL 111134Z 1112/1212 VRB03KT P6SM BKN080
FM112000 21009KT P6SM BKN120
FM120100 17006KT P6SM BKN120

Example: see airport list